Terminal Aerodrome Forecast
Issued by NWS

Home | Current Version | Previous Version | Text Only | Print | Product List | Glossary On
Versions: 1 2 3 4 5 6 7 8 9 10 11 12 13 14 15 16 17 18 19 20
000
FTUS44 KLZK 261100
TAFHOT
TAF
KHOT 261134Z 2612/2712 36007KT P6SM SKC
     FM261600 02008KT P6SM BKN020
     FM261900 04009KT P6SM BKN030
     FM262100 05009KT P6SM SCT030
     FM270000 05009KT P6SM VCSH SCT030 SCT100 BKN250=

USA.gov is the U.S. government's official web portal to all federal, state and local government web resources and services.